Time;durP1;ratioP1;P1;durP2;ratioP2;P2;SDS_P1;SDS_P2;PMS_P1;PMS_P2;Temp;Humidity;BMP_temperature;BMP_pressure;BME280_temperature;BME280_humidity;BME280_pressure;Samples;Min_cycle;Max_cycle;Signal;HPM_P1;HPM_P2
2022/09/19 00:02:13;;;;;;;;;;;;;;;10.14;77.91;95151.97;5069332;28;20488;-63
2022/09/19 00:04:38;;;;;;;;;;;;;;;10.31;77.48;95138.06;5070693;28;20006;-64
2022/09/19 00:07:03;;;;;;;;;;;;;;;10.46;78.18;95147.56;5070452;28;20006;-63
2022/09/19 00:09:31;;;;;;;;;;;;;;;10.49;77.26;95145.06;5069981;28;20005;-64
2022/09/19 00:11:56;;;;;;;;;;;;;;;10.40;77.94;95141.56;5069732;28;20381;-64
2022/09/19 00:14:24;;;;;;;;;;;;;;;10.81;76.54;95141.34;5070342;28;20005;-64
2022/09/19 00:16:53;;;;;;;;;;;;;;;10.28;77.73;95141.31;5069763;28;20013;-65
2022/09/19 00:19:19;;;;;;;;;;;;;;;10.49;76.72;95133.63;5070005;28;20006;-65
2022/09/19 00:21:45;;;;;;;;;;;;;;;10.58;76.27;95140.59;5070390;28;20681;-65
2022/09/19 00:26:55;;;;;;;;;;;;;;;9.99;80.35;95153.09;5070717;28;20031;-64
2022/09/19 00:29:22;;;;;;;;;;;;;;;10.05;80.84;95159.09;5069645;28;20009;-64
2022/09/19 00:31:47;;;;;;;;;;;;;;;10.12;82.42;95146.16;5068940;28;20374;-65
2022/09/19 00:34:13;;;;;;;;;;;;;;;9.87;82.66;95142.97;5069921;28;20012;-64
2022/09/19 00:36:39;;;;;;;;;;;;;;;10.01;83.05;95142.16;5070174;28;20537;-65
2022/09/19 00:39:05;;;;;;;;;;;;;;;9.82;82.66;95150.25;5069639;28;20100;-65
2022/09/19 00:41:30;;;;;;;;;;;;;;;9.86;83.04;95152.03;5068930;28;20009;-64
2022/09/19 00:44:00;;;;;;;;;;;;;;;9.94;83.19;95147.13;5068140;28;20058;-64
2022/09/19 00:46:26;;;;;;;;;;;;;;;10.14;83.23;95144.78;5069211;28;20013;-64
2022/09/19 00:48:54;;;;;;;;;;;;;;;9.95;82.61;95159.31;5067480;28;20014;-65
2022/09/19 00:51:31;;;;;;;;;;;;;;;10.34;82.82;95159.53;5070060;28;20014;-65
2022/09/19 00:53:57;;;;;;;;;;;;;;;10.20;82.40;95158.75;5062485;28;20095;-65
2022/09/19 00:56:42;;;;;;;;;;;;;;;9.88;83.52;95162.38;5048451;28;20056;-65
2022/09/19 00:59:08;;;;;;;;;;;;;;;10.03;83.50;95163.91;5049459;28;20017;-65
2022/09/19 01:01:33;;;;;;;;;;;;;;;9.89;83.02;95162.06;5050878;28;20017;-65
2022/09/19 01:04:01;;;;;;;;;;;;;;;9.75;82.10;95157.88;5069831;28;20009;-65
2022/09/19 01:06:26;;;;;;;;;;;;;;;9.80;82.35;95153.22;5069875;28;20005;-65
2022/09/19 01:09:17;;;;;;;;;;;;;;;9.98;82.54;95156.03;5069507;28;20167;-66
2022/09/19 01:11:46;;;;;;;;;;;;;;;10.02;80.97;95154.34;5068976;28;20017;-65
2022/09/19 01:14:25;;;;;;;;;;;;;;;10.11;82.99;95141.94;5069065;28;20112;-66
2022/09/19 01:16:51;;;;;;;;;;;;;;;10.22;83.19;95145.16;5067933;28;20359;-67
2022/09/19 01:19:29;;;;;;;;;;;;;;;10.27;82.58;95145.06;5069296;28;20009;-65
2022/09/19 01:22:08;;;;;;;;;;;;;;;10.04;84.29;95150.34;5072173;28;20487;-66
2022/09/19 01:24:47;;;;;;;;;;;;;;;9.99;83.57;95152.31;5071499;28;20009;-66
2022/09/19 01:27:18;;;;;;;;;;;;;;;9.69;84.54;95149.22;5073582;28;20005;-65
2022/09/19 01:30:02;;;;;;;;;;;;;;;10.31;82.46;95138.06;5073314;28;20012;-65
2022/09/19 01:32:59;;;;;;;;;;;;;;;9.85;83.67;95139.84;5071354;28;20014;-66
2022/09/19 01:35:30;;;;;;;;;;;;;;;9.71;83.98;95162.97;5039409;28;20024;-65
2022/09/19 01:38:03;;;;;;;;;;;;;;;9.51;85.19;95180.09;5073767;28;20012;-64
2022/09/19 01:40:29;;;;;;;;;;;;;;;9.68;85.56;95184.06;5071694;28;20068;-64
2022/09/19 01:42:56;;;;;;;;;;;;;;;9.60;84.98;95180.22;5071247;28;20013;-64
2022/09/19 01:45:23;;;;;;;;;;;;;;;10.15;82.87;95178.25;5073430;28;20110;-63
2022/09/19 01:47:59;;;;;;;;;;;;;;;9.79;84.44;95201.34;5072625;28;20020;-64
2022/09/19 01:50:37;;;;;;;;;;;;;;;10.54;80.97;95186.69;5072666;28;20013;-65
2022/09/19 01:53:21;;;;;;;;;;;;;;;9.93;81.79;95204.78;5073106;28;20048;-64
2022/09/19 01:56:00;;;;;;;;;;;;;;;9.77;83.57;95193.66;5073100;28;20517;-64
2022/09/19 01:58:33;;;;;;;;;;;;;;;10.10;81.66;95199.63;5071993;28;20108;-64
2022/09/19 02:01:03;;;;;;;;;;;;;;;10.39;80.76;95201.94;5073263;28;20005;-64
2022/09/19 02:03:36;;;;;;;;;;;;;;;10.24;81.99;95204.94;5072279;28;20013;-65
2022/09/19 02:06:06;;;;;;;;;;;;;;;10.50;81.05;95202.50;5072974;28;20020;-65
2022/09/19 02:08:35;;;;;;;;;;;;;;;10.67;79.57;95201.84;5071832;28;20108;-65
2022/09/19 02:11:06;;;;;;;;;;;;;;;10.33;80.44;95213.75;5072954;28;20412;-65
2022/09/19 02:13:34;;;;;;;;;;;;;;;10.21;79.00;95229.44;5072559;28;20017;-64
2022/09/19 02:16:11;;;;;;;;;;;;;;;10.08;79.49;95240.84;5072855;28;20358;-65
2022/09/19 02:18:45;;;;;;;;;;;;;;;8.89;83.73;95235.34;5070977;28;20016;-64
2022/09/19 02:21:13;;;;;;;;;;;;;;;9.45;82.28;95213.16;5072762;28;20109;-64
2022/09/19 02:23:41;;;;;;;;;;;;;;;9.38;81.46;95239.31;5072516;28;20001;-64
2022/09/19 02:26:09;;;;;;;;;;;;;;;9.22;82.83;95230.84;5072560;28;20012;-64
2022/09/19 02:28:39;;;;;;;;;;;;;;;9.28;82.42;95224.34;5071146;28;20010;-64
2022/09/19 02:31:05;;;;;;;;;;;;;;;9.31;82.57;95218.44;5072440;28;20497;-64
2022/09/19 02:33:31;;;;;;;;;;;;;;;9.22;82.83;95230.06;5071537;28;20107;-64
2022/09/19 02:36:13;;;;;;;;;;;;;;;9.14;83.07;95228.06;5072394;28;20105;-63
2022/09/19 02:39:00;;;;;;;;;;;;;;;9.05;83.79;95239.31;5071978;28;20052;-63
2022/09/19 02:41:36;;;;;;;;;;;;;;;9.11;83.95;95240.06;5071552;28;20048;-63
2022/09/19 02:44:21;;;;;;;;;;;;;;;9.05;83.90;95243.84;5072272;28;20066;-63
2022/09/19 02:47:05;;;;;;;;;;;;;;;9.17;83.81;95246.06;5070946;28;20109;-64
2022/09/19 02:49:38;;;;;;;;;;;;;;;9.14;82.98;95251.94;5068474;28;20525;-63
2022/09/19 02:52:08;;;;;;;;;;;;;;;9.36;83.00;95249.41;5071881;28;20492;-64
2022/09/19 02:54:36;;;;;;;;;;;;;;;9.40;81.89;95255.72;5070378;28;20445;-64
2022/09/19 02:57:04;;;;;;;;;;;;;;;9.03;82.51;95264.59;5071972;28;20170;-64
2022/09/19 02:59:33;;;;;;;;;;;;;;;8.97;82.56;95263.88;5069624;28;20056;-63
2022/09/19 03:02:01;;;;;;;;;;;;;;;8.87;82.48;95264.06;5071946;28;20006;-65
2022/09/19 03:04:30;;;;;;;;;;;;;;;9.18;82.98;95263.56;5069544;28;20389;-64
2022/09/19 03:07:01;;;;;;;;;;;;;;;8.88;83.37;95270.94;5071753;28;20012;-65
2022/09/19 03:09:30;;;;;;;;;;;;;;;9.07;82.22;95266.38;5070808;28;20013;-64
2022/09/19 03:12:10;;;;;;;;;;;;;;;8.72;83.15;95272.25;5063848;28;20019;-64
2022/09/19 03:14:35;;;;;;;;;;;;;;;8.56;84.09;95277.00;5071227;28;20009;-64
2022/09/19 03:17:01;;;;;;;;;;;;;;;9.16;81.99;95277.09;5071632;28;20074;-65
2022/09/19 03:19:30;;;;;;;;;;;;;;;8.59;82.90;95279.81;5070590;28;20380;-64
2022/09/19 03:21:56;;;;;;;;;;;;;;;8.60;82.79;95275.34;5071308;28;20037;-64
2022/09/19 03:24:22;;;;;;;;;;;;;;;8.70;82.36;95282.34;5071254;28;20591;-64
2022/09/19 03:26:48;;;;;;;;;;;;;;;8.92;81.28;95282.53;5071381;28;20005;-64
2022/09/19 03:29:14;;;;;;;;;;;;;;;8.57;82.33;95283.84;5069419;28;20013;-64
2022/09/19 03:31:39;;;;;;;;;;;;;;;8.55;82.21;95292.09;5071363;28;20393;-64
2022/09/19 03:34:04;;;;;;;;;;;;;;;8.55;82.16;95286.81;5070245;28;20024;-64
2022/09/19 03:36:33;;;;;;;;;;;;;;;8.39;82.76;95297.88;5071086;28;20017;-65
2022/09/19 03:39:01;;;;;;;;;;;;;;;8.37;82.30;95294.75;5070744;28;20009;-64
2022/09/19 03:41:26;;;;;;;;;;;;;;;8.47;82.14;95302.56;5070399;28;20013;-65
2022/09/19 03:43:52;;;;;;;;;;;;;;;8.24;82.96;95301.50;5070479;28;20005;-65
2022/09/19 03:46:19;;;;;;;;;;;;;;;8.13;83.04;95300.03;5070982;28;20045;-66
2022/09/19 03:48:46;;;;;;;;;;;;;;;8.39;81.84;95311.13;5069731;28;20013;-64
2022/09/19 03:51:16;;;;;;;;;;;;;;;8.02;83.01;95309.97;5070428;28;20111;-64
2022/09/19 03:53:42;;;;;;;;;;;;;;;8.28;81.96;95313.88;5070809;28;20249;-66
2022/09/19 03:56:09;;;;;;;;;;;;;;;7.99;83.20;95321.94;5070951;28;20058;-64
2022/09/19 03:58:35;;;;;;;;;;;;;;;8.83;80.76;95324.06;5068450;28;20013;-64
2022/09/19 04:01:01;;;;;;;;;;;;;;;8.39;81.60;95322.53;5069461;28;20477;-64
2022/09/19 04:03:26;;;;;;;;;;;;;;;8.04;82.31;95329.03;5070624;28;20005;-65
2022/09/19 04:05:52;;;;;;;;;;;;;;;8.08;81.73;95332.69;5069969;28;20040;-65
2022/09/19 04:08:17;;;;;;;;;;;;;;;8.01;82.64;95340.19;5070195;28;20028;-64
2022/09/19 04:10:46;;;;;;;;;;;;;;;8.05;82.89;95344.66;5069794;28;20013;-66
2022/09/19 04:13:11;;;;;;;;;;;;;;;8.06;82.21;95346.22;5070256;28;20013;-64
2022/09/19 04:15:36;;;;;;;;;;;;;;;8.39;81.31;95346.38;5070507;28;20005;-64
2022/09/19 04:18:03;;;;;;;;;;;;;;;8.06;82.45;95348.09;5070400;28;20536;-66
2022/09/19 04:20:30;;;;;;;;;;;;;;;8.36;81.48;95354.09;5067923;28;20382;-65
2022/09/19 04:23:00;;;;;;;;;;;;;;;8.23;80.50;95353.69;5070153;28;20103;-65
2022/09/19 04:25:32;;;;;;;;;;;;;;;7.80;82.78;95350.22;5070469;28;20013;-65
2022/09/19 04:28:03;;;;;;;;;;;;;;;8.21;81.78;95355.06;5070640;28;20005;-66
2022/09/19 04:30:29;;;;;;;;;;;;;;;8.12;81.63;95357.53;5069222;28;20013;-64
2022/09/19 04:32:54;;;;;;;;;;;;;;;7.96;82.55;95356.94;5068601;28;20017;-66
2022/09/19 04:35:20;;;;;;;;;;;;;;;8.63;79.27;95358.81;5069473;28;20021;-63
2022/09/19 04:37:45;;;;;;;;;;;;;;;8.60;79.49;95362.84;5070030;28;20102;-69
2022/09/19 04:40:11;;;;;;;;;;;;;;;8.00;81.25;95365.91;5069104;28;20014;-64
2022/09/19 04:42:38;;;;;;;;;;;;;;;7.91;81.69;95372.09;5069719;28;20020;-66
2022/09/19 04:45:03;;;;;;;;;;;;;;;8.08;80.54;95375.06;5069989;28;20029;-65
2022/09/19 04:47:32;;;;;;;;;;;;;;;8.20;81.29;95377.34;5070326;28;20473;-65
2022/09/19 04:49:57;;;;;;;;;;;;;;;7.95;81.50;95373.91;5067743;28;20013;-65
2022/09/19 04:52:24;;;;;;;;;;;;;;;8.28;80.50;95385.44;5068378;28;20379;-65
2022/09/19 04:54:49;;;;;;;;;;;;;;;8.63;79.74;95380.81;5069521;28;20051;-65
2022/09/19 04:57:15;;;;;;;;;;;;;;;8.39;79.86;95378.19;5069144;28;20063;-66
2022/09/19 04:59:41;;;;;;;;;;;;;;;8.60;78.53;95381.41;5068623;28;20009;-65
2022/09/19 05:02:08;;;;;;;;;;;;;;;8.40;79.02;95376.34;5069429;28;20470;-66
2022/09/19 05:04:33;;;;;;;;;;;;;;;8.20;79.57;95374.69;5068235;28;20012;-66
2022/09/19 05:06:58;;;;;;;;;;;;;;;7.82;80.37;95380.63;5069209;28;20013;-66
2022/09/19 05:09:24;;;;;;;;;;;;;;;7.86;81.34;95380.09;5067950;28;20013;-66
2022/09/19 05:11:50;;;;;;;;;;;;;;;7.86;81.15;95391.47;5069883;28;20005;-66
2022/09/19 05:14:15;;;;;;;;;;;;;;;8.56;79.03;95397.06;5069706;28;20108;-65
2022/09/19 05:16:41;;;;;;;;;;;;;;;7.98;79.96;95399.03;5069207;28;20496;-66
2022/09/19 05:19:06;;;;;;;;;;;;;;;8.60;78.49;95407.91;5069183;28;20461;-65
2022/09/19 05:21:33;;;;;;;;;;;;;;;8.14;79.84;95413.72;5068828;28;20381;-65
2022/09/19 05:23:58;;;;;;;;;;;;;;;8.14;78.39;95402.28;5069622;28;20028;-65
2022/09/19 05:26:23;;;;;;;;;;;;;;;8.20;78.71;95412.59;5069593;28;20071;-65
2022/09/19 05:28:50;;;;;;;;;;;;;;;7.96;79.44;95420.50;5067996;28;20401;-65
2022/09/19 05:31:18;;;;;;;;;;;;;;;8.62;78.18;95411.06;5069388;28;20477;-65
2022/09/19 05:33:43;;;;;;;;;;;;;;;8.64;77.37;95416.06;5069132;28;20067;-64
2022/09/19 05:36:09;;;;;;;;;;;;;;;8.65;77.55;95417.66;5067550;28;20424;-65
2022/09/19 05:38:34;;;;;;;;;;;;;;;8.51;77.84;95418.34;5068912;28;20016;-66
2022/09/19 05:41:00;;;;;;;;;;;;;;;8.93;77.06;95419.41;5068332;28;20020;-66
2022/09/19 05:43:26;;;;;;;;;;;;;;;8.98;76.33;95422.00;5069331;28;20005;-67
2022/09/19 05:45:52;;;;;;;;;;;;;;;8.53;77.22;95441.91;5067943;28;20058;-65
2022/09/19 05:48:18;;;;;;;;;;;;;;;8.88;76.84;95435.41;5068758;28;20377;-66
2022/09/19 05:50:43;;;;;;;;;;;;;;;8.80;76.80;95444.78;5068239;28;20431;-65
2022/09/19 05:55:56;;;;;;;;;;;;;;;9.28;75.38;95444.66;5066936;28;20061;-65
2022/09/19 05:58:21;;;;;;;;;;;;;;;10.09;74.83;95450.56;5067003;28;20052;-64
2022/09/19 06:00:46;;;;;;;;;;;;;;;10.57;73.66;95444.13;5069124;28;20001;-65
2022/09/19 06:03:16;;;;;;;;;;;;;;;10.75;72.99;95445.06;5068985;28;20103;-64
2022/09/19 06:05:43;;;;;;;;;;;;;;;10.40;73.05;95455.34;5065859;28;20021;-65
2022/09/19 06:08:08;;;;;;;;;;;;;;;10.45;72.33;95457.91;5069962;28;20018;-65
2022/09/19 06:10:35;;;;;;;;;;;;;;;10.76;71.71;95468.75;5071576;28;20020;-65
2022/09/19 06:13:00;;;;;;;;;;;;;;;10.03;72.31;95450.91;5069987;28;20070;-65
2022/09/19 06:15:26;;;;;;;;;;;;;;;9.57;74.53;95491.50;5070705;28;20119;-64
2022/09/19 06:17:55;;;;;;;;;;;;;;;9.83;71.73;95489.25;5070186;28;20017;-64
2022/09/19 06:20:20;;;;;;;;;;;;;;;10.19;72.26;95489.47;5071858;28;20512;-63
2022/09/19 06:22:45;;;;;;;;;;;;;;;10.22;70.38;95491.50;5072178;28;20049;-62
2022/09/19 06:25:12;;;;;;;;;;;;;;;9.89;71.05;95494.19;5073091;28;20010;-64
2022/09/19 06:27:38;;;;;;;;;;;;;;;10.01;70.77;95500.91;5070715;28;20469;-64
2022/09/19 06:30:05;;;;;;;;;;;;;;;9.50;72.33;95504.34;5066560;28;20031;-64
2022/09/19 06:32:31;;;;;;;;;;;;;;;9.64;72.34;95508.66;5069983;28;20040;-65
2022/09/19 06:34:56;;;;;;;;;;;;;;;9.98;70.01;95514.78;5069621;28;20013;-64
2022/09/19 06:37:22;;;;;;;;;;;;;;;10.12;69.90;95510.28;5068522;28;20446;-64
2022/09/19 06:39:47;;;;;;;;;;;;;;;11.09;69.74;95509.31;5071908;28;20478;-63
2022/09/19 06:42:12;;;;;;;;;;;;;;;10.47;71.25;95511.59;5069837;28;20014;-64
2022/09/19 06:44:38;;;;;;;;;;;;;;;11.02;68.69;95522.25;5069910;28;20111;-64
2022/09/19 06:47:04;;;;;;;;;;;;;;;10.47;71.51;95514.25;5066466;28;20009;-63
2022/09/19 06:49:29;;;;;;;;;;;;;;;10.82;70.06;95525.31;5071469;28;20009;-63
2022/09/19 06:51:56;;;;;;;;;;;;;;;10.22;70.76;95520.75;5069907;28;20373;-63
2022/09/19 06:54:23;;;;;;;;;;;;;;;9.84;71.50;95528.81;5072139;28;20017;-63
2022/09/19 06:56:52;;;;;;;;;;;;;;;10.43;70.00;95526.53;5067470;28;20612;-63
2022/09/19 06:59:18;;;;;;;;;;;;;;;10.99;67.57;95525.50;5063964;28;20530;-65
2022/09/19 07:01:45;;;;;;;;;;;;;;;10.76;68.49;95529.16;5069319;28;20037;-64
2022/09/19 07:04:10;;;;;;;;;;;;;;;10.64;69.62;95524.31;5059937;28;20541;-63
2022/09/19 07:06:35;;;;;;;;;;;;;;;11.47;65.70;95529.59;5069201;28;20108;-63
2022/09/19 07:09:07;;;;;;;;;;;;;;;10.25;68.37;95541.50;5067989;28;20017;-62
2022/09/19 07:11:33;;;;;;;;;;;;;;;10.37;69.28;95554.31;5065837;28;20071;-67
2022/09/19 07:13:58;;;;;;;;;;;;;;;10.48;70.71;95545.06;5066480;28;20017;-63
2022/09/19 07:16:24;;;;;;;;;;;;;;;10.24;70.91;95558.53;5069384;28;20445;-63
2022/09/19 07:18:49;;;;;;;;;;;;;;;10.20;70.21;95546.84;5069052;28;20092;-63
2022/09/19 07:21:15;;;;;;;;;;;;;;;10.57;69.58;95553.97;5068093;28;20056;-64
2022/09/19 07:23:40;;;;;;;;;;;;;;;10.27;69.29;95568.56;5067306;28;20428;-64
2022/09/19 07:26:06;;;;;;;;;;;;;;;10.18;69.41;95558.84;5069825;28;20054;-64
2022/09/19 07:28:31;;;;;;;;;;;;;;;10.32;70.14;95570.34;5069430;28;20726;-64
2022/09/19 07:31:00;;;;;;;;;;;;;;;10.78;69.07;95572.22;5067123;28;20033;-63
2022/09/19 07:33:25;;;;;;;;;;;;;;;11.25;66.68;95575.56;5066332;28;20067;-64
2022/09/19 07:35:53;;;;;;;;;;;;;;;10.54;68.83;95575.03;5067029;28;20025;-64
2022/09/19 07:38:19;;;;;;;;;;;;;;;11.08;66.33;95584.97;5069668;28;20053;-64
2022/09/19 07:40:44;;;;;;;;;;;;;;;10.47;67.98;95595.91;5070712;28;20015;-64
2022/09/19 07:43:14;;;;;;;;;;;;;;;10.91;68.05;95601.50;5068332;28;20513;-64
2022/09/19 07:45:41;;;;;;;;;;;;;;;10.99;67.41;95593.91;5069427;28;20033;-64
2022/09/19 07:48:07;;;;;;;;;;;;;;;10.88;67.34;95594.09;5068804;28;20013;-64
2022/09/19 07:50:32;;;;;;;;;;;;;;;10.96;67.36;95605.19;5068070;28;20100;-64
2022/09/19 07:53:01;;;;;;;;;;;;;;;11.80;66.86;95592.28;5067424;28;20017;-65
2022/09/19 07:55:27;;;;;;;;;;;;;;;11.79;64.73;95595.25;5068111;28;20017;-66
2022/09/19 07:57:56;;;;;;;;;;;;;;;11.42;66.02;95607.75;5062969;28;20017;-64
2022/09/19 08:00:25;;;;;;;;;;;;;;;11.06;66.66;95613.75;5065136;28;20017;-63
2022/09/19 08:02:57;;;;;;;;;;;;;;;11.58;65.92;95611.66;5068673;28;20617;-64
2022/09/19 08:05:27;;;;;;;;;;;;;;;12.52;62.25;95618.13;5068807;28;20532;-64
2022/09/19 08:07:53;;;;;;;;;;;;;;;11.48;64.31;95555.94;5069582;28;20005;-64
2022/09/19 08:10:20;;;;;;;;;;;;;;;11.37;64.65;95627.28;5068717;28;20016;-65
2022/09/19 08:12:45;;;;;;;;;;;;;;;12.06;64.67;95637.06;5068452;28;20025;-64
2022/09/19 08:15:15;;;;;;;;;;;;;;;11.46;65.69;95635.34;5067683;28;20381;-64
2022/09/19 08:17:40;;;;;;;;;;;;;;;11.33;64.53;95647.59;5066031;28;20009;-65
2022/09/19 08:20:06;;;;;;;;;;;;;;;12.17;62.68;95643.75;5064777;28;20473;-65
2022/09/19 08:22:32;;;;;;;;;;;;;;;12.19;62.63;95646.91;5067885;28;20020;-66
2022/09/19 08:24:57;;;;;;;;;;;;;;;12.53;62.39;95642.91;5090929;22;20025;-69
2022/09/19 08:27:23;;;;;;;;;;;;;;;12.62;61.12;95639.22;5091440;28;20012;-69
2022/09/19 08:29:48;;;;;;;;;;;;;;;13.36;59.83;95641.38;5090054;28;20029;-69
2022/09/19 08:32:14;;;;;;;;;;;;;;;12.18;62.79;95659.47;5083869;28;20063;-70
2022/09/19 08:34:39;;;;;;;;;;;;;;;11.41;64.88;95664.75;5070473;28;20050;-70
2022/09/19 08:37:05;;;;;;;;;;;;;;;11.01;67.59;95672.41;5069294;28;20009;-70
2022/09/19 08:39:30;;;;;;;;;;;;;;;11.76;64.93;95659.78;5069741;28;20009;-71
2022/09/19 08:42:00;;;;;;;;;;;;;;;11.97;65.76;95659.09;5069086;28;20066;-71
2022/09/19 08:45:04;;;;;;;;;;;;;;;12.05;64.02;95670.16;5070050;28;20104;-70
2022/09/19 08:47:32;;;;;;;;;;;;;;;11.97;63.82;95675.09;4988552;28;20014;-70
2022/09/19 08:50:03;;;;;;;;;;;;;;;11.68;64.78;95669.28;4987926;28;20050;-70
2022/09/19 08:52:36;;;;;;;;;;;;;;;13.00;62.51;95668.19;5028701;28;20031;-70
2022/09/19 08:55:03;;;;;;;;;;;;;;;12.63;61.39;95664.03;5070317;28;20050;-70
2022/09/19 08:57:33;;;;;;;;;;;;;;;13.11;60.35;95666.84;5052132;28;20009;-70
2022/09/19 09:00:02;;;;;;;;;;;;;;;13.50;60.09;95667.97;5051444;28;20016;-70
2022/09/19 09:02:46;;;;;;;;;;;;;;;14.35;58.17;95632.88;5051004;28;20066;-70
2022/09/19 09:05:16;;;;;;;;;;;;;;;13.56;58.12;95681.97;5069926;28;20006;-71
2022/09/19 09:07:52;;;;;;;;;;;;;;;12.77;62.08;95674.66;5068144;28;20017;-70
2022/09/19 09:10:30;;;;;;;;;;;;;;;13.41;59.57;95681.31;5051395;28;20063;-70
2022/09/19 09:13:15;;;;;;;;;;;;;;;12.68;60.76;95680.69;5068665;28;20013;-70
2022/09/19 09:15:49;;;;;;;;;;;;;;;12.31;61.57;95679.16;5051847;28;20044;-70
2022/09/19 09:18:23;;;;;;;;;;;;;;;13.72;58.43;95680.47;5069425;28;20009;-71
2022/09/19 09:20:48;;;;;;;;;;;;;;;12.30;62.35;95695.47;5069964;28;20104;-71
2022/09/19 09:23:15;;;;;;;;;;;;;;;12.48;61.45;95684.63;5067769;28;20448;-71
2022/09/19 09:25:44;;;;;;;;;;;;;;;13.39;60.06;95680.81;5051526;28;20116;-71
2022/09/19 09:28:15;;;;;;;;;;;;;;;12.40;60.01;95688.03;5068807;28;20051;-71
2022/09/19 09:30:44;;;;;;;;;;;;;;;12.41;60.90;95686.16;5050831;28;20013;-71
2022/09/19 09:33:23;;;;;;;;;;;;;;;13.45;59.29;95671.56;5048777;28;20057;-71
2022/09/19 09:35:54;;;;;;;;;;;;;;;14.24;58.23;95670.66;5068717;28;20011;-71
2022/09/19 09:38:35;;;;;;;;;;;;;;;13.84;55.61;95667.28;5049492;28;20464;-71
2022/09/19 09:43:52;;;;;;;;;;;;;;;14.48;54.18;95677.44;5071215;28;20496;-71
2022/09/19 09:46:22;;;;;;;;;;;;;;;13.33;57.39;95682.06;5072686;28;20009;-73
2022/09/19 09:48:50;;;;;;;;;;;;;;;13.85;57.02;95674.22;5073244;28;20006;-72
2022/09/19 09:51:36;;;;;;;;;;;;;;;13.30;57.81;95681.88;5072617;28;20006;-74
2022/09/19 09:56:14;;;;;;;;;;;;;;;13.24;57.81;95681.22;5073236;28;20034;-73
2022/09/19 09:57:05;;;;;;;;;;;;;;;14.11;55.54;95679.59;5072676;28;20016;-76
2022/09/19 10:05:42;;;;;;;;;;;;;;;13.76;57.10;95686.75;5071957;28;20051;-73
2022/09/19 10:08:10;;;;;;;;;;;;;;;14.21;55.59;95679.31;5070308;28;20017;-72
2022/09/19 10:10:38;;;;;;;;;;;;;;;14.51;55.76;95685.66;5072003;28;20059;-72
2022/09/19 10:13:08;;;;;;;;;;;;;;;14.49;54.30;95684.41;5071445;28;20013;-72
2022/09/19 10:15:37;;;;;;;;;;;;;;;14.77;54.72;95679.50;5071641;28;20005;-72
2022/09/19 10:18:07;;;;;;;;;;;;;;;14.82;54.32;95680.09;5070646;28;20009;-72
2022/09/19 10:20:45;;;;;;;;;;;;;;;14.67;54.51;95677.13;5070453;28;20017;-71
2022/09/19 10:23:14;;;;;;;;;;;;;;;14.44;55.17;95674.59;5052878;28;20084;-70
2022/09/19 10:25:40;;;;;;;;;;;;;;;14.88;53.05;95678.06;4990763;28;1793315;-76
2022/09/19 10:28:16;;;;;;;;;;;;;;;16.27;49.99;95689.00;5054699;28;20041;-72
2022/09/19 10:30:50;;;;;;;;;;;;;;;15.23;52.40;95686.81;5052554;28;20082;-75
2022/09/19 10:33:23;;;;;;;;;;;;;;;14.85;51.72;95688.63;5052212;28;20019;-71
2022/09/19 10:35:51;;;;;;;;;;;;;;;15.50;51.98;95682.91;5052417;28;20013;-71
2022/09/19 10:38:17;;;;;;;;;;;;;;;13.69;55.45;95697.91;5064240;28;20024;-70
2022/09/19 10:40:58;;;;;;;;;;;;;;;13.93;54.45;95683.38;5054378;28;20009;-71
2022/09/19 10:43:30;;;;;;;;;;;;;;;14.38;54.04;95683.88;5072286;28;20028;-73
2022/09/19 10:45:56;;;;;;;;;;;;;;;15.11;51.48;95685.91;5072369;28;20005;-75
2022/09/19 10:48:26;;;;;;;;;;;;;;;14.78;52.22;95679.16;5052916;28;20373;-76
2022/09/19 10:50:53;;;;;;;;;;;;;;;14.62;52.83;95677.28;5054617;28;20381;-73
2022/09/19 10:53:25;;;;;;;;;;;;;;;13.98;54.36;95677.88;5069030;28;20024;-73
2022/09/19 10:55:52;;;;;;;;;;;;;;;14.60;52.99;95679.50;5072258;28;20050;-73
2022/09/19 10:58:22;;;;;;;;;;;;;;;14.95;52.69;95682.94;5070141;28;20014;-71
2022/09/19 11:00:51;;;;;;;;;;;;;;;14.87;52.71;95683.72;5072018;28;20139;-75
2022/09/19 11:03:23;;;;;;;;;;;;;;;15.27;51.17;95686.97;5054016;28;20017;-75
2022/09/19 11:06:01;;;;;;;;;;;;;;;15.31;50.67;95687.91;5054531;28;20381;-75
2022/09/19 11:08:27;;;;;;;;;;;;;;;16.22;49.36;95683.03;5033857;28;20017;-74
2022/09/19 11:10:52;;;;;;;;;;;;;;;15.03;51.85;95684.81;5033977;28;20409;-74
2022/09/19 11:13:22;;;;;;;;;;;;;;;14.67;52.73;95688.63;5051750;28;20017;-74
2022/09/19 11:15:49;;;;;;;;;;;;;;;15.53;50.65;95695.69;5033928;28;20096;-70
2022/09/19 11:18:38;;;;;;;;;;;;;;;15.54;50.34;95681.16;5051601;28;20020;-74
2022/09/19 11:21:25;;;;;;;;;;;;;;;15.79;49.76;95689.47;5033901;28;20010;-74
2022/09/19 11:24:02;;;;;;;;;;;;;;;14.83;52.00;95675.53;5070833;28;20009;-74
2022/09/19 11:26:47;;;;;;;;;;;;;;;15.16;51.47;95688.41;5071221;28;20481;-75
2022/09/19 11:29:13;;;;;;;;;;;;;;;14.50;53.00;95686.75;5038391;28;20017;-74
2022/09/19 11:32:02;;;;;;;;;;;;;;;14.30;52.57;95680.09;5071207;28;20008;-75
2022/09/19 11:34:50;;;;;;;;;;;;;;;14.62;51.82;95686.13;5053197;28;20021;-74
2022/09/19 11:37:20;;;;;;;;;;;;;;;14.23;52.27;95687.81;5052251;28;20016;-75
2022/09/19 11:40:03;;;;;;;;;;;;;;;15.57;50.25;95685.13;5071224;28;20071;-73
2022/09/19 11:42:37;;;;;;;;;;;;;;;14.50;51.52;95683.28;5071054;28;20104;-74
2022/09/19 11:45:14;;;;;;;;;;;;;;;14.39;52.00;95679.34;5071223;28;20048;-74
2022/09/19 11:47:46;;;;;;;;;;;;;;;14.72;51.35;95679.66;5070954;28;20062;-73
2022/09/19 11:50:32;;;;;;;;;;;;;;;15.03;50.16;95682.91;5048218;28;20036;-74
2022/09/19 11:52:58;;;;;;;;;;;;;;;16.84;48.28;95674.22;5058912;28;20054;-74
2022/09/19 11:55:27;;;;;;;;;;;;;;;17.37;46.80;95665.28;5071167;28;20044;-75
2022/09/19 11:58:05;;;;;;;;;;;;;;;17.44;46.34;95661.25;5070862;28;20426;-74
2022/09/19 12:00:36;;;;;;;;;;;;;;;18.46;44.11;95665.56;5051158;28;20012;-75
2022/09/19 12:03:16;;;;;;;;;;;;;;;17.50;44.45;95666.06;5052316;28;20012;-74
2022/09/19 12:06:01;;;;;;;;;;;;;;;15.64;48.13;95680.06;5070467;28;20006;-74
2022/09/19 12:08:28;;;;;;;;;;;;;;;15.07;49.25;95670.44;5068030;28;20067;-74
2022/09/19 12:10:58;;;;;;;;;;;;;;;15.73;48.07;95655.88;5070730;28;20039;-74
2022/09/19 12:13:27;;;;;;;;;;;;;;;15.72;47.25;95659.69;5070692;28;20013;-73
2022/09/19 12:15:56;;;;;;;;;;;;;;;15.66;48.48;95660.97;5070821;28;20009;-73
2022/09/19 12:18:24;;;;;;;;;;;;;;;16.32;47.47;95648.53;5069511;28;20009;-75
2022/09/19 12:20:54;;;;;;;;;;;;;;;15.91;48.16;95648.53;5070211;28;20092;-74
2022/09/19 12:26:09;;;;;;;;;;;;;;;16.09;47.58;95645.41;5070318;28;20020;-74
2022/09/19 12:28:44;;;;;;;;;;;;;;;15.35;48.38;95645.91;5069929;28;20040;-76
2022/09/19 12:31:11;;;;;;;;;;;;;;;14.78;48.59;95651.59;5052229;28;20019;-76
2022/09/19 12:33:37;;;;;;;;;;;;;;;14.48;49.71;95653.34;5052223;28;20021;-76
2022/09/19 12:36:10;;;;;;;;;;;;;;;15.46;47.62;95646.38;5070800;28;20111;-76
2022/09/19 12:38:44;;;;;;;;;;;;;;;14.43;49.81;95642.78;5051617;28;20005;-76
2022/09/19 12:41:20;;;;;;;;;;;;;;;15.52;48.30;95642.41;5070547;28;20005;-76
2022/09/19 12:43:58;;;;;;;;;;;;;;;14.90;48.32;95638.34;5052489;28;20103;-75
2022/09/19 12:46:27;;;;;;;;;;;;;;;14.66;49.35;95641.53;5052417;28;20009;-77
2022/09/19 12:49:03;;;;;;;;;;;;;;;14.74;49.76;95635.41;5051285;28;20072;-75
2022/09/19 12:51:47;;;;;;;;;;;;;;;15.03;49.60;95645.41;5070326;28;20051;-75
2022/09/19 12:54:33;;;;;;;;;;;;;;;14.78;49.24;95643.56;5069685;28;20408;-74
2022/09/19 12:57:11;;;;;;;;;;;;;;;14.50;50.52;95641.25;5085054;28;20010;-75
2022/09/19 12:59:37;;;;;;;;;;;;;;;14.34;51.23;95632.09;5048134;28;20366;-76
2022/09/19 13:02:18;;;;;;;;;;;;;;;14.05;52.87;95636.16;5050222;28;20052;-75
2022/09/19 13:05:00;;;;;;;;;;;;;;;14.66;51.49;95643.44;5049982;28;20016;-75
2022/09/19 13:07:37;;;;;;;;;;;;;;;15.15;50.72;95634.03;5050178;28;20005;-75
2022/09/19 13:10:17;;;;;;;;;;;;;;;15.36;50.07;95636.00;5066796;28;20013;-76
2022/09/19 13:12:45;;;;;;;;;;;;;;;14.88;51.37;95632.53;5052134;28;20055;-76
2022/09/19 13:15:14;;;;;;;;;;;;;;;15.07;52.21;95630.25;5070274;28;20055;-75
2022/09/19 13:23:30;;;;;;;;;;;;;;;14.99;50.30;95636.44;5072586;28;20591;-75
2022/09/19 13:25:57;;;;;;;;;;;;;;;16.33;48.27;95623.28;5072189;28;20541;-75
2022/09/19 13:28:24;;;;;;;;;;;;;;;15.26;50.11;95640.63;5073437;28;20005;-74